createdAt,value
2023-12-26T00:02:48.624Z,97103.25
2023-12-26T00:05:40.570Z,97104.59
2023-12-26T00:08:32.389Z,97105.63
2023-12-26T00:11:24.218Z,97110.44
2023-12-26T00:14:16.072Z,97105.94
2023-12-26T00:17:07.972Z,97105.44
2023-12-26T00:19:59.746Z,97098.81
2023-12-26T00:22:51.537Z,97101.44
2023-12-26T00:25:43.314Z,97100.38
2023-12-26T00:28:35.137Z,97102.47
2023-12-26T00:31:26.937Z,97105.72
2023-12-26T00:34:18.867Z,97107.56
2023-12-26T00:37:10.777Z,97104.94
2023-12-26T00:40:05.076Z,97111.25
2023-12-26T00:42:57.561Z,97109.38
2023-12-26T00:45:49.555Z,97109.63
2023-12-26T00:48:41.443Z,97111.69
2023-12-26T00:51:33.293Z,97121.78
2023-12-26T00:54:25.068Z,97117.03
2023-12-26T00:57:16.966Z,97104.38
2023-12-26T01:00:09.513Z,97107.81
2023-12-26T01:03:01.394Z,97103.88
2023-12-26T01:05:53.339Z,97097.28
2023-12-26T01:08:45.178Z,97101.72
2023-12-26T01:11:37.077Z,97100.47
2023-12-26T01:14:29.273Z,97099.72
2023-12-26T01:17:21.102Z,97112.69
2023-12-26T01:20:12.937Z,97104.19
2023-12-26T01:23:05.011Z,97103.75
2023-12-26T01:25:56.999Z,97101.81
2023-12-26T01:28:48.798Z,97103.38
2023-12-26T01:31:40.627Z,97099.88
2023-12-26T01:34:32.459Z,97101.16
2023-12-26T01:37:24.974Z,97111.06
2023-12-26T01:40:16.854Z,97098.41
2023-12-26T01:43:08.674Z,97104.22
2023-12-26T01:46:00.926Z,97102.56
2023-12-26T01:48:55.033Z,97107.84
2023-12-26T01:51:48.162Z,97111.91
2023-12-26T01:54:40.080Z,97120.81
2023-12-26T01:57:33.948Z,97119.94
2023-12-26T02:00:26.074Z,97127.22
2023-12-26T02:03:18.109Z,97122.09
2023-12-26T02:06:10.740Z,97124.50
2023-12-26T02:09:02.738Z,97129.13
2023-12-26T02:11:55.643Z,97121.03
2023-12-26T02:14:48.309Z,97116.25
2023-12-26T02:17:42.781Z,97118.63
2023-12-26T02:20:34.732Z,97118.94
2023-12-26T02:23:30.779Z,97118.78
2023-12-26T02:26:29.056Z,97116.38
2023-12-26T02:29:22.546Z,97103.56
2023-12-26T02:32:19.607Z,97104.16
2023-12-26T02:35:12.072Z,97107.25
2023-12-26T02:38:04.585Z,97108.44
2023-12-26T02:40:56.419Z,97109.63
2023-12-26T02:43:48.752Z,97115.53
2023-12-26T02:46:40.570Z,97108.09
2023-12-26T02:49:32.361Z,97110.19
2023-12-26T02:52:24.267Z,97113.03
2023-12-26T02:55:16.113Z,97111.28
2023-12-26T02:58:07.960Z,97118.31
2023-12-26T03:00:59.847Z,97108.81
2023-12-26T03:03:51.771Z,97106.41
2023-12-26T03:06:43.658Z,97107.91
2023-12-26T03:09:35.511Z,97112.78
2023-12-26T03:12:27.325Z,97117.38
2023-12-26T03:15:19.204Z,97119.41
2023-12-26T03:18:11.323Z,97131.03
2023-12-26T03:21:03.579Z,97126.06
2023-12-26T03:23:55.454Z,97130.34
2023-12-26T03:26:47.300Z,97124.19
2023-12-26T03:29:39.143Z,97126.97
2023-12-26T03:32:31.101Z,97123.81
2023-12-26T03:35:23.154Z,97123.13
2023-12-26T03:38:14.980Z,97122.47
2023-12-26T03:41:06.841Z,97125.78
2023-12-26T03:43:58.707Z,97131.19
2023-12-26T03:46:51.047Z,97134.53
2023-12-26T03:49:43.701Z,97132.63
2023-12-26T03:52:35.604Z,97130.22
2023-12-26T03:55:27.473Z,97126.63
2023-12-26T03:58:19.294Z,97124.00
2023-12-26T04:01:12.844Z,97122.94
2023-12-26T04:04:05.269Z,97125.94
2023-12-26T04:06:57.190Z,97132.56
2023-12-26T04:09:49.091Z,97121.81
2023-12-26T04:12:42.638Z,97133.59
2023-12-26T04:15:35.042Z,97132.25
2023-12-26T04:18:27.031Z,97135.53
2023-12-26T04:21:19.061Z,97124.31
2023-12-26T04:24:11.054Z,97124.50
2023-12-26T04:27:02.958Z,97129.38
2023-12-26T04:29:54.937Z,97127.81
2023-12-26T04:32:47.412Z,97130.75
2023-12-26T04:35:40.058Z,97131.56
2023-12-26T04:38:32.159Z,97133.69
2023-12-26T04:41:23.971Z,97134.47
2023-12-26T04:44:16.335Z,97135.22
2023-12-26T04:47:08.162Z,97149.63
2023-12-26T04:50:00.334Z,97143.28
2023-12-26T04:52:52.188Z,97136.50
2023-12-26T04:55:44.084Z,97141.72
2023-12-26T04:58:35.915Z,97147.16
2023-12-26T05:01:27.774Z,97148.72
2023-12-26T05:04:19.716Z,97155.06
2023-12-26T05:07:11.725Z,97158.53
2023-12-26T05:10:03.738Z,97158.38
2023-12-26T05:12:55.836Z,97160.66
2023-12-26T05:15:47.750Z,97157.81
2023-12-26T05:18:39.729Z,97152.25
2023-12-26T05:21:31.644Z,97150.13
2023-12-26T05:24:23.548Z,97158.09
2023-12-26T05:27:15.839Z,97151.56
2023-12-26T05:30:08.978Z,97161.63
2023-12-26T05:33:01.250Z,97162.69
2023-12-26T05:35:53.656Z,97170.25
2023-12-26T05:38:45.576Z,97173.41
2023-12-26T05:41:37.680Z,97176.47
2023-12-26T05:44:29.819Z,97184.66
2023-12-26T05:47:21.720Z,97177.72
2023-12-26T05:50:14.106Z,97186.16
2023-12-26T05:53:06.242Z,97188.63
2023-12-26T05:55:58.528Z,97184.94
2023-12-26T05:58:50.409Z,97185.41
2023-12-26T06:01:48.551Z,97185.50
2023-12-26T06:04:40.540Z,97186.38
2023-12-26T06:07:32.609Z,97193.91
2023-12-26T06:10:24.896Z,97198.22
2023-12-26T06:13:16.936Z,97199.81
2023-12-26T06:16:09.408Z,97208.28
2023-12-26T06:19:02.153Z,97216.03
2023-12-26T06:21:54.091Z,97208.72
2023-12-26T06:24:47.353Z,97217.25
2023-12-26T06:27:39.249Z,97225.50
2023-12-26T06:30:31.596Z,97221.59
2023-12-26T06:33:23.563Z,97223.59
2023-12-26T06:36:15.613Z,97215.81
2023-12-26T06:39:08.733Z,97222.53
2023-12-26T06:42:00.638Z,97232.91
2023-12-26T06:44:52.484Z,97236.81
2023-12-26T06:47:44.639Z,97231.34
2023-12-26T06:50:36.635Z,97235.78
2023-12-26T06:53:28.447Z,97238.84
2023-12-26T06:56:20.234Z,97240.16
2023-12-26T06:59:12.443Z,97233.13
2023-12-26T07:02:04.550Z,97237.41
2023-12-26T07:04:56.411Z,97242.03
2023-12-26T07:07:49.339Z,97241.25
2023-12-26T07:10:41.156Z,97253.13
2023-12-26T07:13:32.912Z,97243.03
2023-12-26T07:16:24.720Z,97246.75
2023-12-26T07:19:16.618Z,97250.59
2023-12-26T07:22:08.561Z,97258.69
2023-12-26T07:25:00.370Z,97255.06
2023-12-26T07:27:52.180Z,97257.13
2023-12-26T07:30:45.109Z,97266.69
2023-12-26T07:33:37.078Z,97271.91
2023-12-26T07:36:28.953Z,97265.13
2023-12-26T07:39:20.814Z,97268.59
2023-12-26T07:42:12.864Z,97283.56
2023-12-26T07:45:05.227Z,97284.81
2023-12-26T07:47:57.175Z,97291.78
2023-12-26T07:50:49.101Z,97287.63
2023-12-26T07:53:40.954Z,97291.91
2023-12-26T07:56:32.769Z,97298.53
2023-12-26T07:59:24.592Z,97299.88
2023-12-26T08:02:16.438Z,97300.44
2023-12-26T08:05:08.318Z,97303.13
2023-12-26T08:08:00.236Z,97307.66
2023-12-26T08:10:52.046Z,97310.72
2023-12-26T08:13:43.911Z,97310.03
2023-12-26T08:16:35.727Z,97318.66
2023-12-26T08:19:27.716Z,97327.59
2023-12-26T08:22:20.330Z,97325.50
2023-12-26T08:25:12.203Z,97325.25
2023-12-26T08:28:05.066Z,97330.00
2023-12-26T08:30:56.910Z,97331.31
2023-12-26T08:33:48.836Z,97338.44
2023-12-26T08:36:40.769Z,97350.53
2023-12-26T08:39:32.572Z,97344.03
2023-12-26T08:42:24.425Z,97358.13
2023-12-26T08:45:16.350Z,97361.97
2023-12-26T08:48:08.413Z,97370.22
2023-12-26T08:51:00.466Z,97376.16
2023-12-26T08:53:52.329Z,97366.59
2023-12-26T08:56:44.227Z,97363.13
2023-12-26T08:59:36.070Z,97351.41
2023-12-26T09:02:27.900Z,97355.41
2023-12-26T09:05:19.725Z,97364.72
2023-12-26T09:08:11.583Z,97352.38
2023-12-26T09:11:05.406Z,97366.53
2023-12-26T09:13:57.401Z,97359.19
2023-12-26T09:16:49.304Z,97359.28
2023-12-26T09:19:41.069Z,97372.69
2023-12-26T09:22:32.886Z,97379.25
2023-12-26T09:25:24.701Z,97390.91
2023-12-26T09:28:16.842Z,97400.03
2023-12-26T09:31:08.804Z,97402.41
2023-12-26T09:34:00.785Z,97399.31
2023-12-26T09:36:52.863Z,97404.94
2023-12-26T09:39:44.641Z,97408.66
2023-12-26T09:42:36.560Z,97412.84
2023-12-26T09:45:29.233Z,97414.66
2023-12-26T09:48:21.381Z,97422.75
2023-12-26T09:51:22.984Z,97418.75
2023-12-26T09:54:19.017Z,97404.00
2023-12-26T09:57:11.147Z,97399.19
2023-12-26T10:00:03.234Z,97396.22
2023-12-26T10:03:04.804Z,97381.31
2023-12-26T10:05:56.747Z,97373.63
2023-12-26T10:08:48.560Z,97372.34
2023-12-26T10:11:43.784Z,97384.69
2023-12-26T10:14:35.551Z,97377.19
2023-12-26T10:17:27.433Z,97389.44
2023-12-26T10:20:19.272Z,97383.91
2023-12-26T10:23:12.717Z,97391.91
2023-12-26T10:26:05.209Z,97385.78
2023-12-26T10:28:57.666Z,97384.44
2023-12-26T10:31:49.532Z,97384.66
2023-12-26T10:34:41.497Z,97378.59
2023-12-26T10:37:34.679Z,97371.84
2023-12-26T10:40:26.991Z,97355.13
2023-12-26T10:43:19.037Z,97359.16
2023-12-26T10:46:10.879Z,97364.47
2023-12-26T10:49:04.467Z,97364.94
2023-12-26T10:52:00.765Z,97364.03
2023-12-26T10:54:56.434Z,97378.06
2023-12-26T10:57:49.874Z,97380.25
2023-12-26T11:01:16.345Z,97390.66
2023-12-26T11:04:45.623Z,97386.91
2023-12-26T11:08:33.664Z,97380.78
2023-12-26T11:12:21.560Z,97374.94
2023-12-26T11:16:09.706Z,97368.19
2023-12-26T11:19:58.067Z,97362.16
2023-12-26T11:23:46.011Z,97380.78
2023-12-26T11:27:34.180Z,97378.75
2023-12-26T11:31:22.369Z,97375.88
2023-12-26T11:35:10.326Z,97376.00
2023-12-26T11:38:58.232Z,97373.53
2023-12-26T11:42:46.659Z,97376.38
2023-12-26T11:46:35.172Z,97390.75
2023-12-26T11:50:23.246Z,97399.59
2023-12-26T11:54:11.272Z,97387.78
2023-12-26T11:57:59.568Z,97382.63
2023-12-26T12:01:47.718Z,97380.84
2023-12-26T12:05:36.039Z,97375.38
2023-12-26T12:09:24.139Z,97374.34
2023-12-26T12:13:14.700Z,97360.50
2023-12-26T12:17:04.175Z,97354.72
2023-12-26T12:20:52.495Z,97346.84
2023-12-26T12:24:40.684Z,97364.94
2023-12-26T12:28:28.994Z,97377.00
2023-12-26T12:32:17.094Z,97365.53
2023-12-26T12:36:04.952Z,97354.75
2023-12-26T12:39:52.550Z,97341.34
2023-12-26T12:43:40.698Z,97332.44
2023-12-26T12:47:29.115Z,97329.69
2023-12-26T12:51:17.077Z,97329.38
2023-12-26T12:55:05.070Z,97329.66
2023-12-26T12:58:53.049Z,97325.72
2023-12-26T13:02:40.905Z,97327.53
2023-12-26T13:06:29.105Z,97322.34
2023-12-26T13:10:17.291Z,97327.00
2023-12-26T13:14:05.259Z,97322.56
2023-12-26T13:17:53.694Z,97325.44
2023-12-26T13:21:41.736Z,97334.66
2023-12-26T13:25:29.980Z,97338.81
2023-12-26T13:29:18.243Z,97346.00
2023-12-26T13:33:06.632Z,97342.75
2023-12-26T13:36:54.843Z,97339.31
2023-12-26T13:40:42.852Z,97337.56
2023-12-26T13:44:31.253Z,97342.38
2023-12-26T13:48:19.424Z,97346.50
2023-12-26T13:52:07.450Z,97330.19
2023-12-26T13:55:36.822Z,97326.78
2023-12-26T13:59:06.168Z,97338.88
2023-12-26T14:02:35.387Z,97327.78
2023-12-26T14:06:04.842Z,97326.69
2023-12-26T14:09:34.294Z,97318.03
2023-12-26T14:13:03.375Z,97323.00
2023-12-26T14:16:32.894Z,97312.16
2023-12-26T14:20:02.520Z,97315.72
2023-12-26T14:23:31.900Z,97322.56
2023-12-26T14:27:01.278Z,97315.31
2023-12-26T14:30:30.771Z,97312.94
2023-12-26T14:34:00.351Z,97312.09
2023-12-26T14:37:30.180Z,97320.03
2023-12-26T14:40:59.331Z,97319.25
2023-12-26T14:44:28.524Z,97330.41
2023-12-26T14:47:58.303Z,97333.31
2023-12-26T14:50:50.189Z,97338.59
2023-12-26T14:53:42.018Z,97338.94
2023-12-26T14:56:36.637Z,97333.28
2023-12-26T14:59:29.118Z,97328.84
2023-12-26T15:02:20.963Z,97330.84
2023-12-26T15:05:12.826Z,97325.03
2023-12-26T15:08:05.097Z,97332.28
2023-12-26T15:10:56.892Z,97336.94
2023-12-26T15:13:55.940Z,97338.28
2023-12-26T15:16:57.286Z,97335.16
2023-12-26T15:19:49.427Z,97338.44
2023-12-26T15:22:41.272Z,97331.84
2023-12-26T15:25:33.084Z,97338.44
2023-12-26T15:28:24.874Z,97342.97
2023-12-26T15:31:18.648Z,97345.91
2023-12-26T15:34:10.676Z,97342.00
2023-12-26T15:37:02.667Z,97356.16
2023-12-26T15:39:54.502Z,97360.41
2023-12-26T15:42:46.322Z,97349.28
2023-12-26T15:45:38.149Z,97363.63
2023-12-26T15:48:33.097Z,97360.66
2023-12-26T15:51:25.138Z,97363.38
2023-12-26T15:54:16.979Z,97366.28
2023-12-26T15:57:09.097Z,97357.13
2023-12-26T16:00:00.960Z,97344.69
2023-12-26T16:02:52.804Z,97339.34
2023-12-26T16:05:44.598Z,97338.16
2023-12-26T16:08:37.804Z,97352.22
2023-12-26T16:11:29.802Z,97361.09
2023-12-26T16:14:21.646Z,97359.25
2023-12-26T16:17:13.459Z,97364.28
2023-12-26T16:20:05.662Z,97361.50
2023-12-26T16:22:57.748Z,97353.09
2023-12-26T16:25:49.663Z,97348.31
2023-12-26T16:28:41.437Z,97351.13
2023-12-26T16:31:34.030Z,97356.28
2023-12-26T16:34:26.062Z,97364.69
2023-12-26T16:37:18.038Z,97369.69
2023-12-26T16:40:10.465Z,97374.41
2023-12-26T16:43:02.235Z,97377.56
2023-12-26T16:45:54.054Z,97379.88
2023-12-26T16:48:46.036Z,97390.00
2023-12-26T16:51:37.929Z,97385.25
2023-12-26T16:54:29.835Z,97383.78
2023-12-26T16:57:21.798Z,97390.69
2023-12-26T17:00:14.122Z,97390.28
2023-12-26T17:03:06.433Z,97399.78
2023-12-26T17:05:58.480Z,97409.97
2023-12-26T17:08:50.330Z,97407.09
2023-12-26T17:11:45.656Z,97395.84
2023-12-26T17:14:37.817Z,97397.34
2023-12-26T17:17:29.701Z,97399.84
2023-12-26T17:20:21.539Z,97398.66
2023-12-26T17:23:13.383Z,97402.34
2023-12-26T17:26:05.173Z,97403.34
2023-12-26T17:28:57.032Z,97402.88
2023-12-26T17:31:52.767Z,97405.50
2023-12-26T17:34:44.690Z,97405.56
2023-12-26T17:37:36.594Z,97408.13
2023-12-26T17:40:28.369Z,97402.03
2023-12-26T17:43:20.222Z,97398.75
2023-12-26T17:46:12.077Z,97398.28
2023-12-26T17:49:04.080Z,97399.78
2023-12-26T17:51:56.072Z,97405.81
2023-12-26T17:54:47.904Z,97432.91
2023-12-26T17:57:39.761Z,97439.13
2023-12-26T18:00:31.885Z,97437.56
2023-12-26T18:03:24.207Z,97432.47
2023-12-26T18:06:16.912Z,97430.38
2023-12-26T18:09:08.831Z,97426.66
2023-12-26T18:12:00.672Z,97425.94
2023-12-26T18:14:52.596Z,97424.22
2023-12-26T18:17:44.660Z,97427.09
2023-12-26T18:20:36.519Z,97425.16
2023-12-26T18:23:28.328Z,97426.94
2023-12-26T18:26:20.190Z,97440.19
2023-12-26T18:29:12.015Z,97456.13
2023-12-26T18:32:04.010Z,97456.97
2023-12-26T18:34:55.835Z,97446.44
2023-12-26T18:37:47.673Z,97447.13
2023-12-26T18:40:40.043Z,97444.63
2023-12-26T18:43:31.826Z,97451.06
2023-12-26T18:46:23.673Z,97450.44
2023-12-26T18:49:15.502Z,97447.78
2023-12-26T18:52:07.306Z,97455.53
2023-12-26T18:54:59.194Z,97459.69
2023-12-26T18:57:50.984Z,97455.34
2023-12-26T19:00:42.886Z,97457.78
2023-12-26T19:03:35.084Z,97453.41
2023-12-26T19:06:29.427Z,97460.06
2023-12-26T19:09:25.052Z,97459.09
2023-12-26T19:12:16.944Z,97464.75
2023-12-26T19:15:08.870Z,97456.53
2023-12-26T19:18:01.140Z,97452.69
2023-12-26T19:20:53.251Z,97458.03
2023-12-26T19:23:45.080Z,97459.50
2023-12-26T19:26:36.900Z,97463.91
2023-12-26T19:29:28.715Z,97467.00
2023-12-26T19:32:20.578Z,97462.75
2023-12-26T19:35:12.469Z,97457.59
2023-12-26T19:38:04.470Z,97454.75
2023-12-26T19:40:56.241Z,97453.34
2023-12-26T19:43:48.050Z,97449.69
2023-12-26T19:46:39.864Z,97444.34
2023-12-26T19:49:31.850Z,97445.31
2023-12-26T19:52:23.749Z,97441.34
2023-12-26T19:55:15.643Z,97442.63
2023-12-26T19:58:07.465Z,97445.88
2023-12-26T20:00:59.385Z,97450.53
2023-12-26T20:03:51.421Z,97456.63
2023-12-26T20:06:46.513Z,97457.66
2023-12-26T20:09:38.391Z,97456.75
2023-12-26T20:12:30.293Z,97461.63
2023-12-26T20:15:22.282Z,97465.19
2023-12-26T20:18:14.265Z,97465.97
2023-12-26T20:21:06.354Z,97467.84
2023-12-26T20:23:58.263Z,97467.28
2023-12-26T20:26:51.420Z,97473.38
2023-12-26T20:29:43.171Z,97477.97
2023-12-26T20:32:35.097Z,97462.84
2023-12-26T20:35:26.943Z,97464.09
2023-12-26T20:38:18.743Z,97468.47
2023-12-26T20:41:12.731Z,97462.19
2023-12-26T20:44:04.774Z,97463.41
2023-12-26T20:46:56.539Z,97472.81
2023-12-26T20:49:48.506Z,97476.13
2023-12-26T20:52:41.399Z,97484.38
2023-12-26T20:55:33.248Z,97485.06
2023-12-26T20:58:25.070Z,97487.28
2023-12-26T21:01:17.225Z,97485.00
2023-12-26T21:04:09.093Z,97488.75
2023-12-26T21:07:01.002Z,97494.59
2023-12-26T21:09:52.864Z,97492.75
2023-12-26T21:12:44.739Z,97504.38
2023-12-26T21:15:36.631Z,97498.75
2023-12-26T21:18:28.538Z,97509.06
2023-12-26T21:21:21.405Z,97507.34
2023-12-26T21:24:13.382Z,97511.59
2023-12-26T21:27:05.343Z,97515.91
2023-12-26T21:29:57.209Z,97511.44
2023-12-26T21:32:49.041Z,97513.38
2023-12-26T21:35:40.929Z,97512.03
2023-12-26T21:38:32.718Z,97502.63
2023-12-26T21:41:24.510Z,97512.84
2023-12-26T21:44:16.270Z,97513.38
2023-12-26T21:47:08.035Z,97518.38
2023-12-26T21:50:03.519Z,97524.50
2023-12-26T21:52:57.122Z,97526.94
2023-12-26T21:55:48.873Z,97529.88
2023-12-26T21:58:41.078Z,97528.00
2023-12-26T22:01:32.943Z,97526.81
2023-12-26T22:04:24.732Z,97534.94
2023-12-26T22:07:16.554Z,97530.13
2023-12-26T22:10:08.514Z,97525.88
2023-12-26T22:13:00.557Z,97523.25
2023-12-26T22:15:52.329Z,97526.59
2023-12-26T22:18:44.266Z,97535.00
2023-12-26T22:21:40.730Z,97528.50
2023-12-26T22:24:32.564Z,97517.09
2023-12-26T22:27:24.638Z,97525.63
2023-12-26T22:30:16.683Z,97533.19
2023-12-26T22:33:08.665Z,97540.78
2023-12-26T22:36:00.653Z,97544.50
2023-12-26T22:38:52.560Z,97549.91
2023-12-26T22:41:44.329Z,97549.50
2023-12-26T22:44:36.112Z,97545.69
2023-12-26T22:47:27.919Z,97553.00
2023-12-26T22:50:19.707Z,97543.91
2023-12-26T22:53:11.524Z,97533.75
2023-12-26T22:56:03.456Z,97541.19
2023-12-26T22:58:56.077Z,97532.13
2023-12-26T23:01:48.363Z,97526.19
2023-12-26T23:04:40.146Z,97530.13
2023-12-26T23:07:31.965Z,97527.38
2023-12-26T23:10:23.725Z,97538.59
2023-12-26T23:13:15.499Z,97547.16
2023-12-26T23:16:07.559Z,97552.06
2023-12-26T23:18:59.502Z,97559.63
2023-12-26T23:21:52.265Z,97561.25
2023-12-26T23:24:44.061Z,97564.63
2023-12-26T23:27:35.988Z,97556.09
2023-12-26T23:30:27.958Z,97557.66
2023-12-26T23:33:19.894Z,97559.88
2023-12-26T23:36:13.622Z,97561.84
2023-12-26T23:39:05.516Z,97556.13
2023-12-26T23:41:58.262Z,97551.56
2023-12-26T23:44:50.053Z,97548.25
2023-12-26T23:47:41.862Z,97553.31
2023-12-26T23:50:33.635Z,97545.50
2023-12-26T23:53:25.429Z,97548.81
2023-12-26T23:56:17.256Z,97556.59
2023-12-26T23:59:09.039Z,97553.00
